sensor_id;sensor_type;location;lat;lon;timestamp;P1;durP1;ratioP1;P2;durP2;ratioP2
41631;SDS011;37452;51.938;4.624;2023-07-08T00:00:46;6.78;;;2.78;;
41631;SDS011;37452;51.938;4.624;2023-07-08T00:03:15;4.60;;;1.98;;
41631;SDS011;37452;51.938;4.624;2023-07-08T00:05:41;6.82;;;2.33;;
41631;SDS011;37452;51.938;4.624;2023-07-08T00:08:16;3.20;;;1.83;;
41631;SDS011;37452;51.938;4.624;2023-07-08T00:10:43;4.30;;;2.40;;
41631;SDS011;37452;51.938;4.624;2023-07-08T00:13:09;4.28;;;2.22;;
41631;SDS011;37452;51.938;4.624;2023-07-08T00:15:35;4.55;;;2.20;;
41631;SDS011;37452;51.938;4.624;2023-07-08T00:18:01;3.15;;;2.13;;
41631;SDS011;37452;51.938;4.624;2023-07-08T00:23:17;4.55;;;2.28;;
41631;SDS011;37452;51.938;4.624;2023-07-08T00:25:46;4.10;;;1.92;;
41631;SDS011;37452;51.938;4.624;2023-07-08T00:28:16;4.28;;;2.10;;
41631;SDS011;37452;51.938;4.624;2023-07-08T00:30:43;4.60;;;2.10;;
41631;SDS011;37452;51.938;4.624;2023-07-08T00:33:08;4.13;;;2.10;;
41631;SDS011;37452;51.938;4.624;2023-07-08T00:35:35;5.25;;;1.98;;
41631;SDS011;37452;51.938;4.624;2023-07-08T00:43:35;3.40;;;1.90;;
41631;SDS011;37452;51.938;4.624;2023-07-08T00:51:24;5.10;;;2.35;;
41631;SDS011;37452;51.938;4.624;2023-07-08T00:53:50;5.10;;;1.90;;
41631;SDS011;37452;51.938;4.624;2023-07-08T01:01:56;4.82;;;2.22;;
41631;SDS011;37452;51.938;4.624;2023-07-08T01:04:31;4.75;;;2.30;;
41631;SDS011;37452;51.938;4.624;2023-07-08T01:06:59;7.07;;;2.45;;
41631;SDS011;37452;51.938;4.624;2023-07-08T01:09:32;4.80;;;2.17;;
41631;SDS011;37452;51.938;4.624;2023-07-08T01:12:02;3.95;;;2.00;;
41631;SDS011;37452;51.938;4.624;2023-07-08T01:14:32;4.78;;;2.20;;
41631;SDS011;37452;51.938;4.624;2023-07-08T01:17:00;2.97;;;1.65;;
41631;SDS011;37452;51.938;4.624;2023-07-08T01:19:27;3.22;;;1.70;;
41631;SDS011;37452;51.938;4.624;2023-07-08T01:22:00;4.28;;;2.00;;
41631;SDS011;37452;51.938;4.624;2023-07-08T01:24:27;5.47;;;2.47;;
41631;SDS011;37452;51.938;4.624;2023-07-08T01:26:54;8.07;;;2.72;;
41631;SDS011;37452;51.938;4.624;2023-07-08T01:29:21;4.13;;;2.15;;
41631;SDS011;37452;51.938;4.624;2023-07-08T01:31:47;3.83;;;1.88;;
41631;SDS011;37452;51.938;4.624;2023-07-08T01:34:16;4.70;;;2.47;;
41631;SDS011;37452;51.938;4.624;2023-07-08T01:36:44;3.20;;;2.15;;
41631;SDS011;37452;51.938;4.624;2023-07-08T01:39:14;7.20;;;2.60;;
41631;SDS011;37452;51.938;4.624;2023-07-08T01:41:42;4.05;;;2.00;;
41631;SDS011;37452;51.938;4.624;2023-07-08T01:44:21;3.70;;;2.25;;
41631;SDS011;37452;51.938;4.624;2023-07-08T01:46:49;3.45;;;2.10;;
41631;SDS011;37452;51.938;4.624;2023-07-08T01:49:17;4.75;;;2.05;;
41631;SDS011;37452;51.938;4.624;2023-07-08T01:51:44;4.45;;;2.50;;
41631;SDS011;37452;51.938;4.624;2023-07-08T01:54:11;5.30;;;2.17;;
41631;SDS011;37452;51.938;4.624;2023-07-08T01:56:36;5.20;;;2.20;;
41631;SDS011;37452;51.938;4.624;2023-07-08T01:59:01;6.68;;;2.70;;
41631;SDS011;37452;51.938;4.624;2023-07-08T02:01:27;5.05;;;2.55;;
41631;SDS011;37452;51.938;4.624;2023-07-08T02:03:52;6.47;;;2.50;;
41631;SDS011;37452;51.938;4.624;2023-07-08T02:06:17;4.15;;;2.20;;
41631;SDS011;37452;51.938;4.624;2023-07-08T02:08:44;4.82;;;2.45;;
41631;SDS011;37452;51.938;4.624;2023-07-08T02:11:09;4.63;;;2.20;;
41631;SDS011;37452;51.938;4.624;2023-07-08T02:13:35;4.03;;;2.30;;
41631;SDS011;37452;51.938;4.624;2023-07-08T02:16:00;3.70;;;2.40;;
41631;SDS011;37452;51.938;4.624;2023-07-08T02:18:25;3.22;;;1.98;;
41631;SDS011;37452;51.938;4.624;2023-07-08T02:20:51;5.82;;;2.53;;
41631;SDS011;37452;51.938;4.624;2023-07-08T02:23:16;3.63;;;2.45;;
41631;SDS011;37452;51.938;4.624;2023-07-08T02:25:43;4.43;;;2.38;;
41631;SDS011;37452;51.938;4.624;2023-07-08T02:28:15;5.55;;;2.55;;
41631;SDS011;37452;51.938;4.624;2023-07-08T02:30:40;6.03;;;2.20;;
41631;SDS011;37452;51.938;4.624;2023-07-08T02:33:06;3.92;;;2.20;;
41631;SDS011;37452;51.938;4.624;2023-07-08T02:35:31;5.53;;;2.88;;
41631;SDS011;37452;51.938;4.624;2023-07-08T02:37:57;5.68;;;2.67;;
41631;SDS011;37452;51.938;4.624;2023-07-08T02:40:23;3.40;;;2.28;;
41631;SDS011;37452;51.938;4.624;2023-07-08T02:42:49;5.00;;;2.17;;
41631;SDS011;37452;51.938;4.624;2023-07-08T02:45:15;3.38;;;2.22;;
41631;SDS011;37452;51.938;4.624;2023-07-08T02:47:41;4.32;;;2.30;;
41631;SDS011;37452;51.938;4.624;2023-07-08T02:50:07;5.90;;;2.67;;
41631;SDS011;37452;51.938;4.624;2023-07-08T02:52:34;5.68;;;2.25;;
41631;SDS011;37452;51.938;4.624;2023-07-08T02:54:59;6.30;;;2.60;;
41631;SDS011;37452;51.938;4.624;2023-07-08T02:57:25;5.88;;;2.55;;
41631;SDS011;37452;51.938;4.624;2023-07-08T02:59:50;5.85;;;2.60;;
41631;SDS011;37452;51.938;4.624;2023-07-08T03:02:15;3.85;;;2.67;;
41631;SDS011;37452;51.938;4.624;2023-07-08T03:04:41;5.72;;;2.50;;
41631;SDS011;37452;51.938;4.624;2023-07-08T03:07:07;5.32;;;2.53;;
41631;SDS011;37452;51.938;4.624;2023-07-08T03:09:36;4.78;;;2.38;;
41631;SDS011;37452;51.938;4.624;2023-07-08T03:12:03;8.43;;;3.25;;
41631;SDS011;37452;51.938;4.624;2023-07-08T03:14:30;4.32;;;2.80;;
41631;SDS011;37452;51.938;4.624;2023-07-08T03:16:55;5.15;;;2.67;;
41631;SDS011;37452;51.938;4.624;2023-07-08T03:19:21;4.75;;;2.85;;
41631;SDS011;37452;51.938;4.624;2023-07-08T03:21:47;4.28;;;2.20;;
41631;SDS011;37452;51.938;4.624;2023-07-08T03:24:12;5.68;;;2.40;;
41631;SDS011;37452;51.938;4.624;2023-07-08T03:26:38;5.53;;;2.67;;
41631;SDS011;37452;51.938;4.624;2023-07-08T03:29:03;4.43;;;2.55;;
41631;SDS011;37452;51.938;4.624;2023-07-08T03:31:29;5.13;;;2.60;;
41631;SDS011;37452;51.938;4.624;2023-07-08T03:33:54;4.03;;;2.67;;
41631;SDS011;37452;51.938;4.624;2023-07-08T03:36:20;6.38;;;2.72;;
41631;SDS011;37452;51.938;4.624;2023-07-08T03:38:57;6.40;;;3.03;;
41631;SDS011;37452;51.938;4.624;2023-07-08T03:41:23;4.15;;;2.53;;
41631;SDS011;37452;51.938;4.624;2023-07-08T03:43:49;5.72;;;2.83;;
41631;SDS011;37452;51.938;4.624;2023-07-08T03:46:18;8.05;;;3.00;;
41631;SDS011;37452;51.938;4.624;2023-07-08T03:48:45;4.32;;;2.58;;
41631;SDS011;37452;51.938;4.624;2023-07-08T03:51:13;5.53;;;3.03;;
41631;SDS011;37452;51.938;4.624;2023-07-08T03:53:46;7.43;;;3.10;;
41631;SDS011;37452;51.938;4.624;2023-07-08T03:56:11;7.38;;;2.85;;
41631;SDS011;37452;51.938;4.624;2023-07-08T03:58:38;6.50;;;2.78;;
41631;SDS011;37452;51.938;4.624;2023-07-08T04:01:03;6.18;;;3.15;;
41631;SDS011;37452;51.938;4.624;2023-07-08T04:03:29;6.80;;;3.00;;
41631;SDS011;37452;51.938;4.624;2023-07-08T04:05:55;6.25;;;2.85;;
41631;SDS011;37452;51.938;4.624;2023-07-08T04:08:20;4.13;;;2.40;;
41631;SDS011;37452;51.938;4.624;2023-07-08T04:10:45;5.40;;;2.55;;
41631;SDS011;37452;51.938;4.624;2023-07-08T04:13:11;4.85;;;2.78;;
41631;SDS011;37452;51.938;4.624;2023-07-08T04:15:37;7.32;;;2.75;;
41631;SDS011;37452;51.938;4.624;2023-07-08T04:18:02;6.57;;;3.03;;
41631;SDS011;37452;51.938;4.624;2023-07-08T04:20:27;5.32;;;2.55;;
41631;SDS011;37452;51.938;4.624;2023-07-08T04:22:53;4.28;;;2.67;;
41631;SDS011;37452;51.938;4.624;2023-07-08T04:25:19;3.92;;;2.60;;
41631;SDS011;37452;51.938;4.624;2023-07-08T04:27:46;5.15;;;2.78;;
41631;SDS011;37452;51.938;4.624;2023-07-08T04:30:18;4.43;;;2.83;;
41631;SDS011;37452;51.938;4.624;2023-07-08T04:32:46;5.78;;;3.17;;
41631;SDS011;37452;51.938;4.624;2023-07-08T04:35:12;5.30;;;2.75;;
41631;SDS011;37452;51.938;4.624;2023-07-08T04:37:37;5.32;;;3.25;;
41631;SDS011;37452;51.938;4.624;2023-07-08T04:40:03;5.22;;;3.13;;
41631;SDS011;37452;51.938;4.624;2023-07-08T04:42:30;4.97;;;3.03;;
41631;SDS011;37452;51.938;4.624;2023-07-08T04:44:55;4.50;;;2.78;;
41631;SDS011;37452;51.938;4.624;2023-07-08T04:47:20;4.18;;;2.58;;
41631;SDS011;37452;51.938;4.624;2023-07-08T04:49:46;6.50;;;2.60;;
41631;SDS011;37452;51.938;4.624;2023-07-08T04:52:12;5.82;;;2.67;;
41631;SDS011;37452;51.938;4.624;2023-07-08T04:54:37;5.20;;;2.50;;
41631;SDS011;37452;51.938;4.624;2023-07-08T04:57:03;4.45;;;2.55;;
41631;SDS011;37452;51.938;4.624;2023-07-08T04:59:28;13.52;;;3.63;;
41631;SDS011;37452;51.938;4.624;2023-07-08T05:01:59;4.93;;;2.97;;
41631;SDS011;37452;51.938;4.624;2023-07-08T05:04:24;7.85;;;2.92;;
41631;SDS011;37452;51.938;4.624;2023-07-08T05:06:49;4.63;;;2.58;;
41631;SDS011;37452;51.938;4.624;2023-07-08T05:09:15;4.90;;;3.00;;
41631;SDS011;37452;51.938;4.624;2023-07-08T05:11:41;7.65;;;3.08;;
41631;SDS011;37452;51.938;4.624;2023-07-08T05:14:07;5.50;;;3.15;;
41631;SDS011;37452;51.938;4.624;2023-07-08T05:16:33;5.35;;;2.92;;
41631;SDS011;37452;51.938;4.624;2023-07-08T05:19:02;5.00;;;2.75;;
41631;SDS011;37452;51.938;4.624;2023-07-08T05:21:29;4.32;;;2.90;;
41631;SDS011;37452;51.938;4.624;2023-07-08T05:23:58;3.33;;;2.55;;
41631;SDS011;37452;51.938;4.624;2023-07-08T05:26:25;4.40;;;2.90;;
41631;SDS011;37452;51.938;4.624;2023-07-08T05:28:50;5.53;;;2.92;;
41631;SDS011;37452;51.938;4.624;2023-07-08T05:31:16;7.88;;;3.13;;
41631;SDS011;37452;51.938;4.624;2023-07-08T05:33:41;8.27;;;3.45;;
41631;SDS011;37452;51.938;4.624;2023-07-08T05:36:06;9.70;;;3.42;;
41631;SDS011;37452;51.938;4.624;2023-07-08T05:38:32;5.07;;;2.90;;
41631;SDS011;37452;51.938;4.624;2023-07-08T05:40:58;5.15;;;3.42;;
41631;SDS011;37452;51.938;4.624;2023-07-08T05:43:24;5.53;;;3.05;;
41631;SDS011;37452;51.938;4.624;2023-07-08T05:45:50;4.82;;;3.20;;
41631;SDS011;37452;51.938;4.624;2023-07-08T05:48:16;5.38;;;2.88;;
41631;SDS011;37452;51.938;4.624;2023-07-08T05:50:42;5.10;;;2.88;;
41631;SDS011;37452;51.938;4.624;2023-07-08T05:53:10;7.88;;;3.10;;
41631;SDS011;37452;51.938;4.624;2023-07-08T05:55:36;6.72;;;3.78;;
41631;SDS011;37452;51.938;4.624;2023-07-08T05:58:01;4.85;;;2.95;;
41631;SDS011;37452;51.938;4.624;2023-07-08T06:00:27;4.75;;;2.72;;
41631;SDS011;37452;51.938;4.624;2023-07-08T06:02:52;4.70;;;2.92;;
41631;SDS011;37452;51.938;4.624;2023-07-08T06:05:17;4.45;;;2.60;;
41631;SDS011;37452;51.938;4.624;2023-07-08T06:07:43;5.65;;;3.08;;
41631;SDS011;37452;51.938;4.624;2023-07-08T06:10:08;4.85;;;2.97;;
41631;SDS011;37452;51.938;4.624;2023-07-08T06:12:34;4.72;;;2.65;;
41631;SDS011;37452;51.938;4.624;2023-07-08T06:14:59;5.15;;;2.75;;
41631;SDS011;37452;51.938;4.624;2023-07-08T06:17:24;6.43;;;3.28;;
41631;SDS011;37452;51.938;4.624;2023-07-08T06:19:50;4.45;;;2.58;;
41631;SDS011;37452;51.938;4.624;2023-07-08T06:22:15;4.50;;;2.83;;
41631;SDS011;37452;51.938;4.624;2023-07-08T06:24:41;4.25;;;2.85;;
41631;SDS011;37452;51.938;4.624;2023-07-08T06:27:06;3.78;;;2.60;;
41631;SDS011;37452;51.938;4.624;2023-07-08T06:29:33;5.50;;;3.00;;
41631;SDS011;37452;51.938;4.624;2023-07-08T06:31:59;4.78;;;2.75;;
41631;SDS011;37452;51.938;4.624;2023-07-08T06:34:25;5.47;;;2.75;;
41631;SDS011;37452;51.938;4.624;2023-07-08T06:36:50;6.20;;;2.42;;
41631;SDS011;37452;51.938;4.624;2023-07-08T06:39:16;4.25;;;2.72;;
41631;SDS011;37452;51.938;4.624;2023-07-08T06:41:42;6.35;;;2.80;;
41631;SDS011;37452;51.938;4.624;2023-07-08T06:44:09;4.00;;;2.65;;
41631;SDS011;37452;51.938;4.624;2023-07-08T06:46:34;4.40;;;2.90;;
41631;SDS011;37452;51.938;4.624;2023-07-08T06:48:59;5.30;;;2.80;;
41631;SDS011;37452;51.938;4.624;2023-07-08T06:51:25;4.03;;;2.75;;
41631;SDS011;37452;51.938;4.624;2023-07-08T06:53:51;4.05;;;2.78;;
41631;SDS011;37452;51.938;4.624;2023-07-08T06:56:16;6.13;;;2.85;;
41631;SDS011;37452;51.938;4.624;2023-07-08T06:58:42;6.25;;;3.20;;
41631;SDS011;37452;51.938;4.624;2023-07-08T07:01:07;4.28;;;2.25;;
41631;SDS011;37452;51.938;4.624;2023-07-08T07:03:33;6.18;;;2.97;;
41631;SDS011;37452;51.938;4.624;2023-07-08T07:05:58;5.75;;;2.83;;
41631;SDS011;37452;51.938;4.624;2023-07-08T07:08:23;5.60;;;2.70;;
41631;SDS011;37452;51.938;4.624;2023-07-08T07:10:49;4.88;;;2.97;;
41631;SDS011;37452;51.938;4.624;2023-07-08T07:13:14;5.45;;;2.70;;
41631;SDS011;37452;51.938;4.624;2023-07-08T07:15:39;6.63;;;3.08;;
41631;SDS011;37452;51.938;4.624;2023-07-08T07:18:05;5.95;;;2.67;;
41631;SDS011;37452;51.938;4.624;2023-07-08T07:20:30;5.45;;;2.90;;
41631;SDS011;37452;51.938;4.624;2023-07-08T07:22:56;5.88;;;2.85;;
41631;SDS011;37452;51.938;4.624;2023-07-08T07:25:22;4.85;;;2.97;;
41631;SDS011;37452;51.938;4.624;2023-07-08T07:27:47;8.07;;;3.30;;
41631;SDS011;37452;51.938;4.624;2023-07-08T07:30:13;6.63;;;2.72;;
41631;SDS011;37452;51.938;4.624;2023-07-08T07:32:40;5.45;;;3.45;;
41631;SDS011;37452;51.938;4.624;2023-07-08T07:35:06;6.55;;;2.90;;
41631;SDS011;37452;51.938;4.624;2023-07-08T07:37:32;5.68;;;3.20;;
41631;SDS011;37452;51.938;4.624;2023-07-08T07:39:57;5.18;;;3.13;;
41631;SDS011;37452;51.938;4.624;2023-07-08T07:42:23;5.47;;;3.30;;
41631;SDS011;37452;51.938;4.624;2023-07-08T07:44:48;4.85;;;2.95;;
41631;SDS011;37452;51.938;4.624;2023-07-08T07:47:13;5.32;;;2.90;;
41631;SDS011;37452;51.938;4.624;2023-07-08T07:49:39;6.78;;;3.50;;
41631;SDS011;37452;51.938;4.624;2023-07-08T07:52:05;9.43;;;3.30;;
41631;SDS011;37452;51.938;4.624;2023-07-08T07:54:31;7.13;;;3.45;;
41631;SDS011;37452;51.938;4.624;2023-07-08T07:56:56;6.07;;;3.30;;
41631;SDS011;37452;51.938;4.624;2023-07-08T07:59:22;5.80;;;3.10;;
41631;SDS011;37452;51.938;4.624;2023-07-08T08:01:47;7.13;;;3.28;;
41631;SDS011;37452;51.938;4.624;2023-07-08T08:04:13;8.48;;;3.72;;
41631;SDS011;37452;51.938;4.624;2023-07-08T08:06:38;5.88;;;3.28;;
41631;SDS011;37452;51.938;4.624;2023-07-08T08:09:04;6.38;;;3.88;;
41631;SDS011;37452;51.938;4.624;2023-07-08T08:11:31;5.28;;;3.10;;
41631;SDS011;37452;51.938;4.624;2023-07-08T08:13:56;7.13;;;4.05;;
41631;SDS011;37452;51.938;4.624;2023-07-08T08:16:22;6.82;;;3.22;;
41631;SDS011;37452;51.938;4.624;2023-07-08T08:18:47;6.50;;;3.38;;
41631;SDS011;37452;51.938;4.624;2023-07-08T08:21:13;7.45;;;3.38;;
41631;SDS011;37452;51.938;4.624;2023-07-08T08:23:38;7.97;;;4.03;;
41631;SDS011;37452;51.938;4.624;2023-07-08T08:26:04;9.02;;;4.28;;
41631;SDS011;37452;51.938;4.624;2023-07-08T08:28:29;7.30;;;3.90;;
41631;SDS011;37452;51.938;4.624;2023-07-08T08:30:55;10.05;;;4.18;;
41631;SDS011;37452;51.938;4.624;2023-07-08T08:33:20;7.05;;;3.72;;
41631;SDS011;37452;51.938;4.624;2023-07-08T08:35:45;9.23;;;4.35;;
41631;SDS011;37452;51.938;4.624;2023-07-08T08:38:11;6.00;;;3.83;;
41631;SDS011;37452;51.938;4.624;2023-07-08T08:40:36;9.52;;;3.72;;
41631;SDS011;37452;51.938;4.624;2023-07-08T08:43:10;7.03;;;3.67;;
41631;SDS011;37452;51.938;4.624;2023-07-08T08:45:42;7.78;;;3.83;;
41631;SDS011;37452;51.938;4.624;2023-07-08T08:48:15;5.97;;;3.90;;
41631;SDS011;37452;51.938;4.624;2023-07-08T08:50:58;6.82;;;4.20;;
41631;SDS011;37452;51.938;4.624;2023-07-08T08:53:30;10.52;;;3.83;;
41631;SDS011;37452;51.938;4.624;2023-07-08T08:55:57;7.15;;;4.30;;
41631;SDS011;37452;51.938;4.624;2023-07-08T08:58:44;9.10;;;4.05;;
41631;SDS011;37452;51.938;4.624;2023-07-08T09:01:16;6.72;;;4.25;;
41631;SDS011;37452;51.938;4.624;2023-07-08T09:03:53;5.50;;;3.45;;
41631;SDS011;37452;51.938;4.624;2023-07-08T09:06:27;9.40;;;4.25;;
41631;SDS011;37452;51.938;4.624;2023-07-08T09:08:55;6.03;;;3.95;;
41631;SDS011;37452;51.938;4.624;2023-07-08T09:14:28;5.68;;;3.55;;
41631;SDS011;37452;51.938;4.624;2023-07-08T09:25:25;7.82;;;4.38;;
41631;SDS011;37452;51.938;4.624;2023-07-08T09:27:54;7.97;;;4.68;;
41631;SDS011;37452;51.938;4.624;2023-07-08T09:30:21;7.70;;;4.05;;
41631;SDS011;37452;51.938;4.624;2023-07-08T09:32:48;7.57;;;4.20;;
41631;SDS011;37452;51.938;4.624;2023-07-08T09:35:18;8.30;;;4.35;;
41631;SDS011;37452;51.938;4.624;2023-07-08T09:37:47;6.80;;;4.10;;
41631;SDS011;37452;51.938;4.624;2023-07-08T09:40:17;8.23;;;5.03;;
41631;SDS011;37452;51.938;4.624;2023-07-08T09:42:48;7.63;;;3.95;;
41631;SDS011;37452;51.938;4.624;2023-07-08T09:45:18;7.07;;;3.72;;
41631;SDS011;37452;51.938;4.624;2023-07-08T09:47:46;7.95;;;4.35;;
41631;SDS011;37452;51.938;4.624;2023-07-08T09:50:17;11.20;;;4.00;;
41631;SDS011;37452;51.938;4.624;2023-07-08T09:52:50;6.20;;;3.72;;
41631;SDS011;37452;51.938;4.624;2023-07-08T09:55:17;6.90;;;3.90;;
41631;SDS011;37452;51.938;4.624;2023-07-08T09:57:43;8.43;;;3.97;;
41631;SDS011;37452;51.938;4.624;2023-07-08T10:00:17;7.25;;;3.90;;
41631;SDS011;37452;51.938;4.624;2023-07-08T10:02:56;7.30;;;4.07;;
41631;SDS011;37452;51.938;4.624;2023-07-08T10:05:25;10.38;;;4.82;;
41631;SDS011;37452;51.938;4.624;2023-07-08T10:07:56;6.63;;;3.80;;
41631;SDS011;37452;51.938;4.624;2023-07-08T10:10:30;9.35;;;4.60;;
41631;SDS011;37452;51.938;4.624;2023-07-08T10:13:00;9.25;;;4.05;;
41631;SDS011;37452;51.938;4.624;2023-07-08T10:17:59;7.82;;;4.80;;
41631;SDS011;37452;51.938;4.624;2023-07-08T10:20:28;9.05;;;4.57;;
41631;SDS011;37452;51.938;4.624;2023-07-08T10:23:08;7.07;;;4.55;;
41631;SDS011;37452;51.938;4.624;2023-07-08T10:26:06;8.27;;;4.28;;
41631;SDS011;37452;51.938;4.624;2023-07-08T10:32:05;8.95;;;4.50;;
41631;SDS011;37452;51.938;4.624;2023-07-08T10:37:07;9.00;;;4.25;;
41631;SDS011;37452;51.938;4.624;2023-07-08T10:45:23;9.85;;;4.57;;
41631;SDS011;37452;51.938;4.624;2023-07-08T10:53:09;8.07;;;4.38;;
41631;SDS011;37452;51.938;4.624;2023-07-08T10:56:12;9.63;;;4.43;;
41631;SDS011;37452;51.938;4.624;2023-07-08T11:04:05;6.47;;;3.97;;
41631;SDS011;37452;51.938;4.624;2023-07-08T11:09:31;9.73;;;4.70;;
41631;SDS011;37452;51.938;4.624;2023-07-08T11:12:28;8.05;;;3.88;;
41631;SDS011;37452;51.938;4.624;2023-07-08T11:17:42;7.65;;;4.65;;
41631;SDS011;37452;51.938;4.624;2023-07-08T11:20:24;9.47;;;4.50;;
41631;SDS011;37452;51.938;4.624;2023-07-08T11:23:01;8.40;;;4.22;;
41631;SDS011;37452;51.938;4.624;2023-07-08T11:25:37;7.82;;;4.50;;
41631;SDS011;37452;51.938;4.624;2023-07-08T11:28:05;6.93;;;4.20;;
41631;SDS011;37452;51.938;4.624;2023-07-08T11:30:40;8.20;;;4.63;;
41631;SDS011;37452;51.938;4.624;2023-07-08T11:33:09;7.75;;;4.47;;
41631;SDS011;37452;51.938;4.624;2023-07-08T11:38:09;8.07;;;4.68;;
41631;SDS011;37452;51.938;4.624;2023-07-08T11:46:24;8.13;;;4.72;;
41631;SDS011;37452;51.938;4.624;2023-07-08T11:48:53;7.70;;;4.28;;
41631;SDS011;37452;51.938;4.624;2023-07-08T11:51:28;7.85;;;3.90;;
41631;SDS011;37452;51.938;4.624;2023-07-08T11:59:26;9.30;;;3.80;;
41631;SDS011;37452;51.938;4.624;2023-07-08T12:02:02;10.18;;;4.78;;
41631;SDS011;37452;51.938;4.624;2023-07-08T12:04:30;8.75;;;4.55;;
41631;SDS011;37452;51.938;4.624;2023-07-08T12:07:09;9.02;;;4.50;;
41631;SDS011;37452;51.938;4.624;2023-07-08T12:10:39;7.03;;;4.22;;
41631;SDS011;37452;51.938;4.624;2023-07-08T12:12:50;6.88;;;4.15;;
41631;SDS011;37452;51.938;4.624;2023-07-08T12:15:23;8.90;;;4.18;;
41631;SDS011;37452;51.938;4.624;2023-07-08T12:17:53;11.52;;;4.25;;
41631;SDS011;37452;51.938;4.624;2023-07-08T12:20:26;7.10;;;3.90;;
41631;SDS011;37452;51.938;4.624;2023-07-08T12:22:54;5.90;;;3.63;;
41631;SDS011;37452;51.938;4.624;2023-07-08T12:25:30;8.10;;;4.00;;
41631;SDS011;37452;51.938;4.624;2023-07-08T12:27:57;8.57;;;4.18;;
41631;SDS011;37452;51.938;4.624;2023-07-08T12:30:23;7.22;;;4.00;;
41631;SDS011;37452;51.938;4.624;2023-07-08T12:32:50;11.20;;;4.00;;
41631;SDS011;37452;51.938;4.624;2023-07-08T12:40:18;6.68;;;3.88;;
41631;SDS011;37452;51.938;4.624;2023-07-08T12:42:48;8.82;;;4.25;;
41631;SDS011;37452;51.938;4.624;2023-07-08T12:45:15;7.18;;;4.20;;
41631;SDS011;37452;51.938;4.624;2023-07-08T12:47:43;6.00;;;3.67;;
41631;SDS011;37452;51.938;4.624;2023-07-08T12:50:10;7.28;;;3.97;;
41631;SDS011;37452;51.938;4.624;2023-07-08T12:52:36;6.07;;;3.85;;
41631;SDS011;37452;51.938;4.624;2023-07-08T12:55:01;10.57;;;3.90;;
41631;SDS011;37452;51.938;4.624;2023-07-08T12:57:27;6.63;;;3.88;;
41631;SDS011;37452;51.938;4.624;2023-07-08T12:59:52;9.40;;;3.85;;
41631;SDS011;37452;51.938;4.624;2023-07-08T13:02:19;11.43;;;3.88;;
41631;SDS011;37452;51.938;4.624;2023-07-08T13:04:49;8.00;;;3.70;;
41631;SDS011;37452;51.938;4.624;2023-07-08T13:07:22;5.93;;;3.38;;
41631;SDS011;37452;51.938;4.624;2023-07-08T13:09:55;6.38;;;3.35;;
41631;SDS011;37452;51.938;4.624;2023-07-08T13:12:21;7.95;;;3.42;;
41631;SDS011;37452;51.938;4.624;2023-07-08T13:14:49;7.68;;;4.25;;
41631;SDS011;37452;51.938;4.624;2023-07-08T13:17:18;7.47;;;3.88;;
41631;SDS011;37452;51.938;4.624;2023-07-08T13:19:44;9.05;;;4.00;;
41631;SDS011;37452;51.938;4.624;2023-07-08T13:22:17;6.75;;;4.05;;
41631;SDS011;37452;51.938;4.624;2023-07-08T13:24:45;6.90;;;3.95;;
41631;SDS011;37452;51.938;4.624;2023-07-08T13:27:20;7.88;;;4.13;;
41631;SDS011;37452;51.938;4.624;2023-07-08T13:29:47;6.88;;;4.30;;
41631;SDS011;37452;51.938;4.624;2023-07-08T13:32:13;9.20;;;4.05;;
41631;SDS011;37452;51.938;4.624;2023-07-08T13:34:40;5.63;;;3.40;;
41631;SDS011;37452;51.938;4.624;2023-07-08T13:37:09;6.55;;;3.67;;
41631;SDS011;37452;51.938;4.624;2023-07-08T13:39:37;7.68;;;3.83;;
41631;SDS011;37452;51.938;4.624;2023-07-08T13:42:03;9.00;;;4.22;;
41631;SDS011;37452;51.938;4.624;2023-07-08T13:44:32;6.18;;;3.60;;
41631;SDS011;37452;51.938;4.624;2023-07-08T13:46:59;8.85;;;5.07;;
41631;SDS011;37452;51.938;4.624;2023-07-08T13:49:30;6.75;;;4.22;;
41631;SDS011;37452;51.938;4.624;2023-07-08T13:52:19;6.50;;;4.22;;
41631;SDS011;37452;51.938;4.624;2023-07-08T13:54:51;7.65;;;4.10;;
41631;SDS011;37452;51.938;4.624;2023-07-08T13:57:36;7.53;;;4.20;;
41631;SDS011;37452;51.938;4.624;2023-07-08T14:00:04;7.43;;;4.20;;
41631;SDS011;37452;51.938;4.624;2023-07-08T14:02:32;10.48;;;4.30;;
41631;SDS011;37452;51.938;4.624;2023-07-08T14:04:58;10.52;;;4.65;;
41631;SDS011;37452;51.938;4.624;2023-07-08T14:07:28;7.88;;;4.47;;
41631;SDS011;37452;51.938;4.624;2023-07-08T14:09:55;8.82;;;4.43;;
41631;SDS011;37452;51.938;4.624;2023-07-08T14:12:21;10.25;;;4.68;;
41631;SDS011;37452;51.938;4.624;2023-07-08T14:14:47;7.00;;;4.00;;
41631;SDS011;37452;51.938;4.624;2023-07-08T14:17:14;8.65;;;4.55;;
41631;SDS011;37452;51.938;4.624;2023-07-08T14:19:44;7.10;;;4.03;;
41631;SDS011;37452;51.938;4.624;2023-07-08T14:24:38;7.75;;;4.60;;
41631;SDS011;37452;51.938;4.624;2023-07-08T14:27:04;10.85;;;4.60;;
41631;SDS011;37452;51.938;4.624;2023-07-08T14:29:30;9.88;;;4.55;;
41631;SDS011;37452;51.938;4.624;2023-07-08T14:31:56;9.52;;;4.25;;
41631;SDS011;37452;51.938;4.624;2023-07-08T14:34:25;8.05;;;4.22;;
41631;SDS011;37452;51.938;4.624;2023-07-08T14:36:52;7.20;;;4.18;;
41631;SDS011;37452;51.938;4.624;2023-07-08T14:39:18;10.38;;;4.95;;
41631;SDS011;37452;51.938;4.624;2023-07-08T14:41:44;8.30;;;4.53;;
41631;SDS011;37452;51.938;4.624;2023-07-08T14:44:23;10.63;;;3.83;;
41631;SDS011;37452;51.938;4.624;2023-07-08T14:46:56;7.60;;;4.28;;
41631;SDS011;37452;51.938;4.624;2023-07-08T14:49:23;12.00;;;4.55;;
41631;SDS011;37452;51.938;4.624;2023-07-08T14:51:49;8.10;;;4.40;;
41631;SDS011;37452;51.938;4.624;2023-07-08T14:54:16;7.13;;;4.35;;
41631;SDS011;37452;51.938;4.624;2023-07-08T14:56:43;9.43;;;4.22;;
41631;SDS011;37452;51.938;4.624;2023-07-08T14:59:15;10.50;;;4.57;;
41631;SDS011;37452;51.938;4.624;2023-07-08T15:01:43;13.27;;;4.22;;
41631;SDS011;37452;51.938;4.624;2023-07-08T15:04:13;7.30;;;4.22;;
41631;SDS011;37452;51.938;4.624;2023-07-08T15:06:43;8.15;;;4.30;;
41631;SDS011;37452;51.938;4.624;2023-07-08T15:09:10;7.93;;;3.72;;
41631;SDS011;37452;51.938;4.624;2023-07-08T15:11:36;8.10;;;4.03;;
41631;SDS011;37452;51.938;4.624;2023-07-08T15:14:06;11.55;;;4.35;;
41631;SDS011;37452;51.938;4.624;2023-07-08T15:16:43;7.65;;;3.92;;
41631;SDS011;37452;51.938;4.624;2023-07-08T15:19:10;7.07;;;4.50;;
41631;SDS011;37452;51.938;4.624;2023-07-08T15:21:36;8.50;;;4.55;;
41631;SDS011;37452;51.938;4.624;2023-07-08T15:24:02;7.63;;;4.53;;
41631;SDS011;37452;51.938;4.624;2023-07-08T15:26:28;6.78;;;4.05;;
41631;SDS011;37452;51.938;4.624;2023-07-08T15:28:53;8.00;;;3.88;;
41631;SDS011;37452;51.938;4.624;2023-07-08T15:31:20;7.25;;;4.53;;
41631;SDS011;37452;51.938;4.624;2023-07-08T15:33:50;6.35;;;4.20;;
41631;SDS011;37452;51.938;4.624;2023-07-08T15:36:16;8.65;;;3.92;;
41631;SDS011;37452;51.938;4.624;2023-07-08T15:38:42;6.85;;;4.15;;
41631;SDS011;37452;51.938;4.624;2023-07-08T15:41:13;7.18;;;4.25;;
41631;SDS011;37452;51.938;4.624;2023-07-08T15:43:41;6.97;;;3.75;;
41631;SDS011;37452;51.938;4.624;2023-07-08T15:46:07;6.97;;;4.15;;
41631;SDS011;37452;51.938;4.624;2023-07-08T15:48:33;9.80;;;4.93;;
41631;SDS011;37452;51.938;4.624;2023-07-08T15:50:58;8.55;;;4.82;;
41631;SDS011;37452;51.938;4.624;2023-07-08T15:53:23;8.50;;;4.53;;
41631;SDS011;37452;51.938;4.624;2023-07-08T15:55:49;7.28;;;4.20;;
41631;SDS011;37452;51.938;4.624;2023-07-08T16:00:51;6.50;;;4.60;;
41631;SDS011;37452;51.938;4.624;2023-07-08T16:03:21;11.77;;;4.18;;
41631;SDS011;37452;51.938;4.624;2023-07-08T16:05:49;8.00;;;4.18;;
41631;SDS011;37452;51.938;4.624;2023-07-08T16:08:15;9.40;;;5.32;;
41631;SDS011;37452;51.938;4.624;2023-07-08T16:10:40;8.27;;;4.93;;
41631;SDS011;37452;51.938;4.624;2023-07-08T16:13:07;7.45;;;4.57;;
41631;SDS011;37452;51.938;4.624;2023-07-08T16:15:35;7.15;;;4.13;;
41631;SDS011;37452;51.938;4.624;2023-07-08T16:18:03;7.70;;;4.50;;